»·PEaware :: AAL1220 KPHX-KDEN

AAL1220 :: KPHX-KDEN

FLIGHT INFORMATION

Flight Status: Arrived
Operator:
American Airlines
More flights by this operator :: More flights under this callsign
Pilot: Jordan S. (14404)
Aircraft: BOEING 737-800
(B738)
More flights by this aircraft type
Origin: KPHX Phoenix Sky Harbor Intl
United States
Destination: KDEN Denver Intl
United States
More flights between these airports :: More routes between these airports
Route: MRBIL1 YOOPR OURAY PEEKK3
File this flight plan on PilotEdge
Remarks:
Altitude:
(Current/Filed)
31,000ft
Speed:
(Current/Filed)
450kts
Departed: 12-Jun-18 01:56 PM
Arrived: 12-Jun-18 03:32 PM
Distance/Time
Traveled:
522nm/1:36
Distance/Time
To Go:
Arrived

Flight Plot

Page will automatically refresh every two minutes.

Flight plan parsing failed; only flown route is shown


Map Options




Map Legend


Flown Route
Filed Route
Departure Airport
Arrival Airport
Navaid (VOR, NDB)
Fix

Horizontal Profiles

Position Reports

Time Latitude Longitude Heading Altitude Ground
Speed
12-Jun-18 13:32 33.436893 -112.001318 269 1141ft 0kts
12-Jun-18 13:33 33.436893 -112.001318 269 1141ft 0kts
12-Jun-18 13:34 33.436893 -112.001318 269 1141ft 0kts
12-Jun-18 13:35 33.436893 -112.001318 269 1141ft 0kts
12-Jun-18 13:36 33.436893 -112.001318 269 1141ft 0kts
12-Jun-18 13:37 33.436893 -112.001318 269 1141ft 0kts
12-Jun-18 13:38 33.436893 -112.001318 269 1141ft 0kts
12-Jun-18 13:39 33.436893 -112.001318 269 1141ft 0kts
12-Jun-18 13:40 33.436893 -112.001318 269 1141ft 0kts
12-Jun-18 13:41 33.436893 -112.001318 269 1141ft 0kts
12-Jun-18 13:42 33.436893 -112.001318 269 1141ft 0kts
12-Jun-18 13:43 33.436893 -112.001318 269 1141ft 0kts
12-Jun-18 13:44 33.436897 -112.001115 268 1142ft 5kts
12-Jun-18 13:45 33.436902 -112.000752 268 1142ft 0kts
12-Jun-18 13:46 33.436902 -112.000752 268 1142ft 0kts
12-Jun-18 13:47 33.436902 -112.000752 268 1142ft 0kts
12-Jun-18 13:48 33.436902 -112.000752 268 1142ft 0kts
12-Jun-18 13:49 33.436902 -112.000752 268 1142ft 0kts
12-Jun-18 13:50 33.436902 -112.000753 269 1142ft 0kts
12-Jun-18 13:51 33.437712 -112.000939 23 1142ft 9kts
12-Jun-18 13:52 33.439270 -112.000760 1 1141ft 9kts
12-Jun-18 13:53 33.439756 -111.996257 90 1141ft 20kts
12-Jun-18 13:54 33.439849 -111.993789 46 1142ft 1kts
12-Jun-18 13:55 33.440838 -111.994633 270 1142ft 19kts
12-Jun-18 13:56 33.441388 -112.042023 272 2086ft 202kts
12-Jun-18 13:57 33.442472 -112.114856 273 3705ft 252kts
12-Jun-18 13:58 33.468020 -112.187402 343 6622ft 261kts
12-Jun-18 13:59 33.541301 -112.190867 11 9299ft 287kts
12-Jun-18 14:00 33.622375 -112.160649 38 11399ft 333kts
12-Jun-18 14:01 33.655016 -112.120966 46 12844ft 341kts
12-Jun-18 14:02 33.721365 -112.036266 46 15700ft 357kts
12-Jun-18 14:03 33.786049 -111.943378 52 18370ft 373kts
12-Jun-18 14:04 33.849696 -111.841913 52 20962ft 389kts
12-Jun-18 14:05 33.916129 -111.736580 52 23399ft 404kts
12-Jun-18 14:06 33.985207 -111.627245 52 25652ft 419kts
12-Jun-18 14:07 34.076439 -111.542772 30 28023ft 418kts
12-Jun-18 14:08 34.173870 -111.467817 31 30303ft 415kts
12-Jun-18 14:09 34.270168 -111.393352 31 31151ft 412kts
12-Jun-18 14:10 34.368051 -111.317692 31 31160ft 437kts
12-Jun-18 14:11 34.475157 -111.234935 31 31131ft 478kts
12-Jun-18 14:12 34.587246 -111.148306 31 31083ft 479kts
12-Jun-18 14:13 34.702669 -111.067750 27 31082ft 479kts
12-Jun-18 14:14 34.819419 -110.990602 27 31083ft 479kts
12-Jun-18 14:15 34.936111 -110.913146 27 31084ft 479kts
12-Jun-18 14:16 35.053107 -110.835484 27 31084ft 480kts
12-Jun-18 14:17 35.170005 -110.757922 27 31082ft 480kts
12-Jun-18 14:18 35.287348 -110.680092 27 31083ft 483kts
12-Jun-18 14:19 35.406021 -110.601412 27 31084ft 488kts
12-Jun-18 14:20 35.525770 -110.522052 27 31085ft 494kts
12-Jun-18 14:21 35.643736 -110.443623 29 31080ft 500kts
12-Jun-18 14:22 35.737685 -110.318283 51 31084ft 506kts
12-Jun-18 14:23 35.826131 -110.182848 51 31084ft 512kts
12-Jun-18 14:24 35.916035 -110.046120 51 31135ft 517kts
12-Jun-18 14:25 36.006818 -109.908325 50 31202ft 519kts
12-Jun-18 14:26 36.098173 -109.769895 50 31204ft 520kts
12-Jun-18 14:27 36.183969 -109.640090 50 30994ft 449kts
12-Jun-18 14:28 36.258623 -109.527133 50 31213ft 420kts
12-Jun-18 14:29 36.334341 -109.412916 50 31218ft 439kts
12-Jun-18 14:30 36.410995 -109.294938 52 31873ft 439kts
12-Jun-18 14:31 36.490891 -109.172390 48 31336ft 460kts
12-Jun-18 14:32 36.572580 -109.054068 50 31129ft 439kts
12-Jun-18 14:33 36.649623 -108.938861 50 31108ft 439kts
12-Jun-18 14:34 36.729017 -108.819995 49 31120ft 457kts
12-Jun-18 14:35 36.811830 -108.696091 49 31108ft 474kts
12-Jun-18 14:36 36.897258 -108.568585 49 31115ft 481kts
12-Jun-18 14:37 36.982901 -108.440680 49 31107ft 480kts
12-Jun-18 14:38 37.067382 -108.314831 49 31113ft 480kts
12-Jun-18 14:39 37.152948 -108.187591 49 31120ft 479kts
12-Jun-18 14:40 37.236127 -108.064061 49 31178ft 479kts
12-Jun-18 14:41 37.322149 -107.936492 48 31200ft 479kts
12-Jun-18 14:42 37.408197 -107.809076 48 31203ft 479kts
12-Jun-18 14:43 37.494374 -107.681669 48 31239ft 479kts
12-Jun-18 14:44 37.580674 -107.554265 48 31235ft 479kts
12-Jun-18 14:45 37.667107 -107.426881 48 31268ft 479kts
12-Jun-18 14:46 37.753419 -107.299884 48 31279ft 479kts
12-Jun-18 14:47 37.840137 -107.172483 48 31298ft 479kts
12-Jun-18 14:48 37.926806 -107.045338 48 31277ft 479kts
12-Jun-18 14:49 38.014178 -106.917336 47 31267ft 482kts
12-Jun-18 14:50 38.101658 -106.789400 47 31266ft 484kts
12-Jun-18 14:51 38.188954 -106.661946 47 31264ft 484kts
12-Jun-18 14:52 38.280647 -106.537302 41 31271ft 483kts
12-Jun-18 14:53 38.375962 -106.419656 42 31284ft 483kts
12-Jun-18 14:54 38.468498 -106.304879 42 31300ft 484kts
12-Jun-18 14:55 38.564616 -106.185034 42 31301ft 484kts
12-Jun-18 14:56 38.656295 -106.070165 42 30313ft 437kts
12-Jun-18 14:57 38.739000 -105.965940 42 29254ft 413kts
12-Jun-18 14:58 38.821826 -105.861536 42 28289ft 420kts
12-Jun-18 14:59 38.904913 -105.756012 42 27308ft 422kts
12-Jun-18 15:00 38.988265 -105.649449 41 26347ft 429kts
12-Jun-18 15:01 39.073325 -105.540783 40 24512ft 429kts
12-Jun-18 15:02 39.156204 -105.434951 40 22028ft 408kts
12-Jun-18 15:03 39.230694 -105.339338 41 19936ft 361kts
12-Jun-18 15:04 39.305253 -105.257490 33 18168ft 346kts
12-Jun-18 15:05 39.381213 -105.183158 33 16289ft 340kts
12-Jun-18 15:06 39.451137 -105.115499 33 16195ft 332kts
12-Jun-18 15:07 39.525083 -105.043236 34 16193ft 338kts
12-Jun-18 15:08 39.601326 -104.968094 35 15210ft 332kts
12-Jun-18 15:09 39.674683 -104.895715 36 15192ft 333kts
12-Jun-18 15:10 39.755229 -104.842791 1 13242ft 321kts
12-Jun-18 15:11 39.839685 -104.840141 0 11610ft 287kts
12-Jun-18 15:12 39.919439 -104.837486 0 10072ft 288kts
12-Jun-18 15:13 39.999250 -104.835411 0 8591ft 288kts
12-Jun-18 15:14 40.079111 -104.833884 0 7191ft 284kts
12-Jun-18 15:15 40.150492 -104.832798 0 6994ft 242kts
12-Jun-18 15:16 40.213609 -104.820971 46 6776ft 221kts
12-Jun-18 15:17 40.214539 -104.748157 130 6942ft 225kts
12-Jun-18 15:18 40.165647 -104.694684 175 7002ft 230kts
12-Jun-18 15:19 40.101388 -104.693740 180 6993ft 231kts
12-Jun-18 15:20 40.037233 -104.694347 180 6998ft 231kts
12-Jun-18 15:21 39.977306 -104.695080 179 6767ft 196kts
12-Jun-18 15:22 39.922167 -104.695810 179 6307ft 208kts
12-Jun-18 15:23 39.862165 -104.696126 179 7005ft 233kts
12-Jun-18 15:24 39.797653 -104.696208 179 7004ft 230kts
12-Jun-18 15:25 39.748860 -104.730652 275 7039ft 244kts
12-Jun-18 15:26 39.805112 -104.765274 357 7007ft 249kts
12-Jun-18 15:27 39.874062 -104.769821 357 7006ft 249kts
12-Jun-18 15:28 39.941069 -104.773932 357 7009ft 235kts
12-Jun-18 15:29 39.997718 -104.751210 82 6995ft 231kts
12-Jun-18 15:30 39.958063 -104.698301 159 6503ft 225kts
12-Jun-18 15:31 39.897005 -104.696089 179 5510ft 215kts
12-Jun-18 15:32 39.876423 -104.695219 144 5442ft 6kts
12-Jun-18 15:33 39.875000 -104.692236 90 5442ft 16kts
12-Jun-18 15:34 39.874948 -104.684834 90 5442ft 18kts
12-Jun-18 15:35 39.871366 -104.683764 180 5442ft 20kts
12-Jun-18 15:36 39.865148 -104.683831 180 5442ft 19kts
12-Jun-18 15:37 39.863320 -104.681737 132 5442ft 4kts
12-Jun-18 15:38 39.863860 -104.678671 59 5442ft 8kts
12-Jun-18 15:39 39.863629 -104.676233 179 5442ft 0kts
12-Jun-18 15:40 39.863629 -104.676233 179 5442ft 0kts
12-Jun-18 15:41 39.863629 -104.676233 179 5442ft 0kts

Navigation Log

Ident Type
Flight plan parsing failed, navigation log unavailable